sensor_id;sensor_type;location;lat;lon;timestamp;P1;durP1;ratioP1;P2;durP2;ratioP2
22230;SDS011;11284;48.086;-1.652;2023-07-20T00:01:57;10.63;;;2.50;;
22230;SDS011;11284;48.086;-1.652;2023-07-20T00:04:23;8.25;;;2.65;;
22230;SDS011;11284;48.086;-1.652;2023-07-20T00:06:49;8.40;;;2.50;;
22230;SDS011;11284;48.086;-1.652;2023-07-20T00:09:15;6.93;;;2.40;;
22230;SDS011;11284;48.086;-1.652;2023-07-20T00:11:48;8.02;;;2.50;;
22230;SDS011;11284;48.086;-1.652;2023-07-20T00:14:15;6.57;;;2.42;;
22230;SDS011;11284;48.086;-1.652;2023-07-20T00:16:42;9.35;;;2.33;;
22230;SDS011;11284;48.086;-1.652;2023-07-20T00:19:08;6.78;;;2.53;;
22230;SDS011;11284;48.086;-1.652;2023-07-20T00:21:34;10.30;;;2.50;;
22230;SDS011;11284;48.086;-1.652;2023-07-20T00:24:00;9.73;;;2.65;;
22230;SDS011;11284;48.086;-1.652;2023-07-20T00:26:26;6.75;;;2.45;;
22230;SDS011;11284;48.086;-1.652;2023-07-20T00:28:52;6.38;;;2.47;;
22230;SDS011;11284;48.086;-1.652;2023-07-20T00:31:18;7.50;;;2.25;;
22230;SDS011;11284;48.086;-1.652;2023-07-20T00:33:44;6.95;;;2.17;;
22230;SDS011;11284;48.086;-1.652;2023-07-20T00:36:10;6.85;;;2.35;;
22230;SDS011;11284;48.086;-1.652;2023-07-20T00:38:36;10.45;;;2.72;;
22230;SDS011;11284;48.086;-1.652;2023-07-20T00:41:02;8.40;;;2.30;;
22230;SDS011;11284;48.086;-1.652;2023-07-20T00:43:28;8.13;;;2.40;;
22230;SDS011;11284;48.086;-1.652;2023-07-20T00:45:54;6.95;;;2.60;;
22230;SDS011;11284;48.086;-1.652;2023-07-20T00:48:20;7.43;;;2.83;;
22230;SDS011;11284;48.086;-1.652;2023-07-20T00:50:46;10.05;;;2.47;;
22230;SDS011;11284;48.086;-1.652;2023-07-20T00:53:13;7.28;;;2.75;;
22230;SDS011;11284;48.086;-1.652;2023-07-20T00:55:39;6.80;;;2.28;;
22230;SDS011;11284;48.086;-1.652;2023-07-20T00:58:05;6.45;;;2.85;;
22230;SDS011;11284;48.086;-1.652;2023-07-20T01:00:32;9.73;;;2.92;;
22230;SDS011;11284;48.086;-1.652;2023-07-20T01:02:58;9.52;;;2.15;;
22230;SDS011;11284;48.086;-1.652;2023-07-20T01:05:25;6.22;;;2.38;;
22230;SDS011;11284;48.086;-1.652;2023-07-20T01:08:00;6.82;;;2.35;;
22230;SDS011;11284;48.086;-1.652;2023-07-20T01:10:31;7.33;;;2.50;;
22230;SDS011;11284;48.086;-1.652;2023-07-20T01:12:59;7.25;;;2.70;;
22230;SDS011;11284;48.086;-1.652;2023-07-20T01:15:26;6.93;;;2.17;;
22230;SDS011;11284;48.086;-1.652;2023-07-20T01:17:52;7.57;;;2.55;;
22230;SDS011;11284;48.086;-1.652;2023-07-20T01:20:18;6.15;;;2.10;;
22230;SDS011;11284;48.086;-1.652;2023-07-20T01:23:35;6.70;;;2.20;;
22230;SDS011;11284;48.086;-1.652;2023-07-20T01:33:26;7.72;;;2.10;;
22230;SDS011;11284;48.086;-1.652;2023-07-20T01:35:55;7.45;;;2.28;;
22230;SDS011;11284;48.086;-1.652;2023-07-20T01:38:22;8.23;;;2.25;;
22230;SDS011;11284;48.086;-1.652;2023-07-20T01:40:49;7.00;;;2.40;;
22230;SDS011;11284;48.086;-1.652;2023-07-20T01:43:15;8.65;;;2.30;;
22230;SDS011;11284;48.086;-1.652;2023-07-20T01:45:42;7.00;;;2.40;;
22230;SDS011;11284;48.086;-1.652;2023-07-20T01:48:08;6.13;;;2.60;;
22230;SDS011;11284;48.086;-1.652;2023-07-20T01:50:34;9.05;;;2.67;;
22230;SDS011;11284;48.086;-1.652;2023-07-20T01:53:01;9.77;;;2.60;;
22230;SDS011;11284;48.086;-1.652;2023-07-20T01:55:27;8.82;;;2.80;;
22230;SDS011;11284;48.086;-1.652;2023-07-20T01:57:54;5.57;;;2.45;;
22230;SDS011;11284;48.086;-1.652;2023-07-20T02:00:20;7.65;;;3.08;;
22230;SDS011;11284;48.086;-1.652;2023-07-20T02:02:49;6.95;;;3.00;;
22230;SDS011;11284;48.086;-1.652;2023-07-20T02:05:15;6.40;;;3.08;;
22230;SDS011;11284;48.086;-1.652;2023-07-20T02:07:42;7.70;;;2.30;;
22230;SDS011;11284;48.086;-1.652;2023-07-20T02:10:08;8.00;;;2.42;;
22230;SDS011;11284;48.086;-1.652;2023-07-20T02:12:34;7.88;;;2.58;;
22230;SDS011;11284;48.086;-1.652;2023-07-20T02:15:00;7.05;;;2.40;;
22230;SDS011;11284;48.086;-1.652;2023-07-20T02:17:26;7.82;;;2.53;;
22230;SDS011;11284;48.086;-1.652;2023-07-20T02:19:52;7.28;;;2.47;;
22230;SDS011;11284;48.086;-1.652;2023-07-20T02:22:19;7.82;;;2.38;;
22230;SDS011;11284;48.086;-1.652;2023-07-20T02:24:45;4.95;;;2.20;;
22230;SDS011;11284;48.086;-1.652;2023-07-20T02:27:11;6.63;;;2.55;;
22230;SDS011;11284;48.086;-1.652;2023-07-20T02:29:37;6.88;;;2.92;;
22230;SDS011;11284;48.086;-1.652;2023-07-20T02:32:03;7.70;;;2.60;;
22230;SDS011;11284;48.086;-1.652;2023-07-20T02:34:29;8.15;;;2.60;;
22230;SDS011;11284;48.086;-1.652;2023-07-20T02:36:55;7.03;;;2.78;;
22230;SDS011;11284;48.086;-1.652;2023-07-20T02:39:22;6.00;;;2.55;;
22230;SDS011;11284;48.086;-1.652;2023-07-20T02:41:48;6.68;;;2.58;;
22230;SDS011;11284;48.086;-1.652;2023-07-20T02:44:15;7.97;;;2.97;;
22230;SDS011;11284;48.086;-1.652;2023-07-20T02:46:41;9.63;;;3.10;;
22230;SDS011;11284;48.086;-1.652;2023-07-20T02:49:07;9.60;;;3.63;;
22230;SDS011;11284;48.086;-1.652;2023-07-20T02:51:33;8.05;;;3.33;;
22230;SDS011;11284;48.086;-1.652;2023-07-20T02:53:59;7.95;;;3.38;;
22230;SDS011;11284;48.086;-1.652;2023-07-20T02:56:26;7.95;;;2.72;;
22230;SDS011;11284;48.086;-1.652;2023-07-20T02:58:52;9.10;;;3.17;;
22230;SDS011;11284;48.086;-1.652;2023-07-20T03:01:18;6.90;;;2.92;;
22230;SDS011;11284;48.086;-1.652;2023-07-20T03:03:44;5.90;;;3.03;;
22230;SDS011;11284;48.086;-1.652;2023-07-20T03:06:13;6.63;;;3.15;;
22230;SDS011;11284;48.086;-1.652;2023-07-20T03:08:40;6.95;;;3.35;;
22230;SDS011;11284;48.086;-1.652;2023-07-20T03:11:06;6.90;;;3.30;;
22230;SDS011;11284;48.086;-1.652;2023-07-20T03:13:32;7.47;;;3.20;;
22230;SDS011;11284;48.086;-1.652;2023-07-20T03:15:58;8.82;;;3.20;;
22230;SDS011;11284;48.086;-1.652;2023-07-20T03:18:24;8.55;;;3.50;;
22230;SDS011;11284;48.086;-1.652;2023-07-20T03:20:51;11.98;;;3.60;;
22230;SDS011;11284;48.086;-1.652;2023-07-20T03:23:17;6.75;;;3.55;;
22230;SDS011;11284;48.086;-1.652;2023-07-20T03:25:43;8.85;;;3.85;;
22230;SDS011;11284;48.086;-1.652;2023-07-20T03:28:09;6.55;;;3.40;;
22230;SDS011;11284;48.086;-1.652;2023-07-20T03:30:35;8.25;;;3.45;;
22230;SDS011;11284;48.086;-1.652;2023-07-20T03:33:01;7.43;;;3.33;;
22230;SDS011;11284;48.086;-1.652;2023-07-20T03:35:28;8.57;;;3.28;;
22230;SDS011;11284;48.086;-1.652;2023-07-20T03:37:54;8.23;;;3.83;;
22230;SDS011;11284;48.086;-1.652;2023-07-20T03:40:20;7.57;;;3.90;;
22230;SDS011;11284;48.086;-1.652;2023-07-20T03:42:46;7.75;;;3.53;;
22230;SDS011;11284;48.086;-1.652;2023-07-20T03:45:12;10.50;;;4.18;;
22230;SDS011;11284;48.086;-1.652;2023-07-20T03:47:38;8.63;;;4.03;;
22230;SDS011;11284;48.086;-1.652;2023-07-20T03:50:04;10.48;;;3.67;;
22230;SDS011;11284;48.086;-1.652;2023-07-20T03:52:30;7.90;;;3.72;;
22230;SDS011;11284;48.086;-1.652;2023-07-20T03:54:56;9.45;;;3.63;;
22230;SDS011;11284;48.086;-1.652;2023-07-20T03:57:22;8.13;;;3.20;;
22230;SDS011;11284;48.086;-1.652;2023-07-20T03:59:48;6.35;;;3.42;;
22230;SDS011;11284;48.086;-1.652;2023-07-20T04:02:14;7.57;;;3.28;;
22230;SDS011;11284;48.086;-1.652;2023-07-20T04:04:40;7.43;;;3.55;;
22230;SDS011;11284;48.086;-1.652;2023-07-20T04:07:06;6.72;;;3.33;;
22230;SDS011;11284;48.086;-1.652;2023-07-20T04:09:32;7.22;;;3.50;;
22230;SDS011;11284;48.086;-1.652;2023-07-20T04:11:58;8.98;;;3.85;;
22230;SDS011;11284;48.086;-1.652;2023-07-20T04:14:25;7.28;;;3.85;;
22230;SDS011;11284;48.086;-1.652;2023-07-20T04:16:51;13.07;;;3.92;;
22230;SDS011;11284;48.086;-1.652;2023-07-20T04:19:17;7.93;;;3.95;;
22230;SDS011;11284;48.086;-1.652;2023-07-20T04:21:43;9.05;;;3.95;;
22230;SDS011;11284;48.086;-1.652;2023-07-20T04:24:09;9.68;;;4.03;;
22230;SDS011;11284;48.086;-1.652;2023-07-20T04:26:35;8.77;;;3.78;;
22230;SDS011;11284;48.086;-1.652;2023-07-20T04:29:01;7.97;;;3.80;;
22230;SDS011;11284;48.086;-1.652;2023-07-20T04:31:28;9.48;;;4.13;;
22230;SDS011;11284;48.086;-1.652;2023-07-20T04:33:57;9.15;;;3.80;;
22230;SDS011;11284;48.086;-1.652;2023-07-20T04:36:23;6.72;;;3.80;;
22230;SDS011;11284;48.086;-1.652;2023-07-20T04:38:49;10.68;;;4.00;;
22230;SDS011;11284;48.086;-1.652;2023-07-20T04:41:15;7.10;;;4.03;;
22230;SDS011;11284;48.086;-1.652;2023-07-20T04:43:41;9.20;;;4.53;;
22230;SDS011;11284;48.086;-1.652;2023-07-20T04:46:08;7.80;;;4.10;;
22230;SDS011;11284;48.086;-1.652;2023-07-20T04:48:34;8.50;;;4.45;;
22230;SDS011;11284;48.086;-1.652;2023-07-20T04:51:00;8.40;;;4.50;;
22230;SDS011;11284;48.086;-1.652;2023-07-20T04:53:26;8.52;;;4.40;;
22230;SDS011;11284;48.086;-1.652;2023-07-20T04:55:52;9.02;;;4.72;;
22230;SDS011;11284;48.086;-1.652;2023-07-20T04:58:19;7.47;;;4.63;;
22230;SDS011;11284;48.086;-1.652;2023-07-20T05:00:46;9.48;;;4.63;;
22230;SDS011;11284;48.086;-1.652;2023-07-20T05:03:12;8.05;;;4.30;;
22230;SDS011;11284;48.086;-1.652;2023-07-20T05:05:38;7.43;;;4.40;;
22230;SDS011;11284;48.086;-1.652;2023-07-20T05:08:04;10.30;;;4.75;;
22230;SDS011;11284;48.086;-1.652;2023-07-20T05:10:30;10.05;;;4.32;;
22230;SDS011;11284;48.086;-1.652;2023-07-20T05:12:57;6.93;;;4.32;;
22230;SDS011;11284;48.086;-1.652;2023-07-20T05:15:23;8.48;;;4.18;;
22230;SDS011;11284;48.086;-1.652;2023-07-20T05:17:49;10.50;;;4.38;;
22230;SDS011;11284;48.086;-1.652;2023-07-20T05:20:15;9.32;;;4.30;;
22230;SDS011;11284;48.086;-1.652;2023-07-20T05:22:41;9.25;;;5.20;;
22230;SDS011;11284;48.086;-1.652;2023-07-20T05:25:08;9.88;;;4.57;;
22230;SDS011;11284;48.086;-1.652;2023-07-20T05:27:36;6.57;;;4.55;;
22230;SDS011;11284;48.086;-1.652;2023-07-20T05:30:02;8.60;;;4.75;;
22230;SDS011;11284;48.086;-1.652;2023-07-20T05:32:28;8.25;;;4.72;;
22230;SDS011;11284;48.086;-1.652;2023-07-20T05:34:54;8.35;;;4.60;;
22230;SDS011;11284;48.086;-1.652;2023-07-20T05:37:20;9.20;;;4.40;;
22230;SDS011;11284;48.086;-1.652;2023-07-20T05:39:46;9.15;;;4.57;;
22230;SDS011;11284;48.086;-1.652;2023-07-20T05:42:12;10.52;;;4.68;;
22230;SDS011;11284;48.086;-1.652;2023-07-20T05:44:39;7.18;;;4.20;;
22230;SDS011;11284;48.086;-1.652;2023-07-20T05:47:05;10.85;;;4.28;;
22230;SDS011;11284;48.086;-1.652;2023-07-20T05:49:31;9.95;;;4.55;;
22230;SDS011;11284;48.086;-1.652;2023-07-20T05:51:57;10.95;;;4.35;;
22230;SDS011;11284;48.086;-1.652;2023-07-20T05:54:24;9.32;;;4.00;;
22230;SDS011;11284;48.086;-1.652;2023-07-20T05:56:50;12.35;;;4.80;;
22230;SDS011;11284;48.086;-1.652;2023-07-20T05:59:19;11.23;;;4.80;;
22230;SDS011;11284;48.086;-1.652;2023-07-20T06:01:45;9.57;;;4.25;;
22230;SDS011;11284;48.086;-1.652;2023-07-20T06:04:14;8.18;;;4.47;;
22230;SDS011;11284;48.086;-1.652;2023-07-20T06:06:40;8.88;;;3.97;;
22230;SDS011;11284;48.086;-1.652;2023-07-20T06:09:06;10.93;;;4.53;;
22230;SDS011;11284;48.086;-1.652;2023-07-20T06:11:36;10.38;;;4.35;;
22230;SDS011;11284;48.086;-1.652;2023-07-20T06:14:02;14.10;;;5.70;;
22230;SDS011;11284;48.086;-1.652;2023-07-20T06:16:28;8.68;;;4.97;;
22230;SDS011;11284;48.086;-1.652;2023-07-20T06:18:55;10.38;;;4.80;;
22230;SDS011;11284;48.086;-1.652;2023-07-20T06:21:21;9.43;;;4.63;;
22230;SDS011;11284;48.086;-1.652;2023-07-20T06:23:47;7.88;;;4.10;;
22230;SDS011;11284;48.086;-1.652;2023-07-20T06:26:13;10.10;;;4.57;;
22230;SDS011;11284;48.086;-1.652;2023-07-20T06:28:40;12.70;;;4.55;;
22230;SDS011;11284;48.086;-1.652;2023-07-20T06:31:06;13.07;;;4.80;;
22230;SDS011;11284;48.086;-1.652;2023-07-20T06:33:32;8.68;;;4.40;;
22230;SDS011;11284;48.086;-1.652;2023-07-20T06:35:59;11.82;;;4.50;;
22230;SDS011;11284;48.086;-1.652;2023-07-20T06:38:25;8.65;;;4.35;;
22230;SDS011;11284;48.086;-1.652;2023-07-20T06:40:51;13.35;;;4.63;;
22230;SDS011;11284;48.086;-1.652;2023-07-20T06:43:17;9.32;;;4.68;;
22230;SDS011;11284;48.086;-1.652;2023-07-20T06:45:43;9.70;;;4.85;;
22230;SDS011;11284;48.086;-1.652;2023-07-20T06:48:10;10.90;;;4.47;;
22230;SDS011;11284;48.086;-1.652;2023-07-20T06:50:36;11.65;;;4.75;;
22230;SDS011;11284;48.086;-1.652;2023-07-20T06:53:02;10.63;;;4.38;;
22230;SDS011;11284;48.086;-1.652;2023-07-20T06:55:30;9.02;;;4.60;;
22230;SDS011;11284;48.086;-1.652;2023-07-20T06:57:56;8.55;;;3.55;;
22230;SDS011;11284;48.086;-1.652;2023-07-20T07:00:22;6.95;;;3.42;;
22230;SDS011;11284;48.086;-1.652;2023-07-20T07:02:48;9.15;;;3.53;;
22230;SDS011;11284;48.086;-1.652;2023-07-20T07:05:14;7.28;;;3.42;;
22230;SDS011;11284;48.086;-1.652;2023-07-20T07:07:41;8.13;;;3.30;;
22230;SDS011;11284;48.086;-1.652;2023-07-20T07:10:07;9.00;;;3.80;;
22230;SDS011;11284;48.086;-1.652;2023-07-20T07:12:33;9.20;;;4.10;;
22230;SDS011;11284;48.086;-1.652;2023-07-20T07:15:04;6.55;;;3.45;;
22230;SDS011;11284;48.086;-1.652;2023-07-20T07:17:33;9.75;;;3.38;;
22230;SDS011;11284;48.086;-1.652;2023-07-20T07:20:00;7.35;;;3.45;;
22230;SDS011;11284;48.086;-1.652;2023-07-20T07:22:26;8.32;;;3.40;;
22230;SDS011;11284;48.086;-1.652;2023-07-20T07:24:52;8.07;;;3.53;;
22230;SDS011;11284;48.086;-1.652;2023-07-20T07:27:19;6.47;;;3.50;;
22230;SDS011;11284;48.086;-1.652;2023-07-20T07:29:45;6.88;;;3.25;;
22230;SDS011;11284;48.086;-1.652;2023-07-20T07:32:11;8.18;;;4.18;;
22230;SDS011;11284;48.086;-1.652;2023-07-20T07:34:37;9.32;;;3.20;;
22230;SDS011;11284;48.086;-1.652;2023-07-20T07:37:06;6.57;;;3.42;;
22230;SDS011;11284;48.086;-1.652;2023-07-20T07:39:32;11.05;;;3.58;;
22230;SDS011;11284;48.086;-1.652;2023-07-20T07:41:58;8.93;;;3.95;;
22230;SDS011;11284;48.086;-1.652;2023-07-20T07:44:24;6.53;;;3.22;;
22230;SDS011;11284;48.086;-1.652;2023-07-20T07:46:50;7.63;;;3.35;;
22230;SDS011;11284;48.086;-1.652;2023-07-20T07:49:16;8.23;;;3.20;;
22230;SDS011;11284;48.086;-1.652;2023-07-20T07:51:44;8.43;;;3.65;;
22230;SDS011;11284;48.086;-1.652;2023-07-20T07:54:10;6.70;;;3.22;;
22230;SDS011;11284;48.086;-1.652;2023-07-20T07:56:36;8.93;;;3.10;;
22230;SDS011;11284;48.086;-1.652;2023-07-20T07:59:02;9.13;;;3.53;;
22230;SDS011;11284;48.086;-1.652;2023-07-20T08:01:28;7.70;;;3.10;;
22230;SDS011;11284;48.086;-1.652;2023-07-20T08:03:55;7.00;;;2.97;;
22230;SDS011;11284;48.086;-1.652;2023-07-20T08:06:21;12.20;;;3.38;;
22230;SDS011;11284;48.086;-1.652;2023-07-20T08:08:48;6.47;;;2.83;;
22230;SDS011;11284;48.086;-1.652;2023-07-20T08:11:14;7.88;;;2.90;;
22230;SDS011;11284;48.086;-1.652;2023-07-20T08:13:41;10.05;;;3.33;;
22230;SDS011;11284;48.086;-1.652;2023-07-20T08:16:07;8.70;;;3.28;;
22230;SDS011;11284;48.086;-1.652;2023-07-20T08:18:33;5.75;;;3.05;;
22230;SDS011;11284;48.086;-1.652;2023-07-20T08:20:59;7.30;;;2.90;;
22230;SDS011;11284;48.086;-1.652;2023-07-20T08:23:25;6.25;;;2.70;;
22230;SDS011;11284;48.086;-1.652;2023-07-20T08:25:52;7.60;;;2.63;;
22230;SDS011;11284;48.086;-1.652;2023-07-20T08:28:19;7.85;;;2.65;;
22230;SDS011;11284;48.086;-1.652;2023-07-20T08:30:45;9.07;;;2.80;;
22230;SDS011;11284;48.086;-1.652;2023-07-20T08:33:14;5.55;;;2.65;;
22230;SDS011;11284;48.086;-1.652;2023-07-20T08:35:41;7.45;;;2.70;;
22230;SDS011;11284;48.086;-1.652;2023-07-20T08:38:07;5.22;;;2.95;;
22230;SDS011;11284;48.086;-1.652;2023-07-20T08:40:33;6.70;;;2.80;;
22230;SDS011;11284;48.086;-1.652;2023-07-20T08:43:00;7.28;;;2.80;;
22230;SDS011;11284;48.086;-1.652;2023-07-20T08:45:27;5.05;;;2.60;;
22230;SDS011;11284;48.086;-1.652;2023-07-20T08:47:58;7.35;;;3.10;;
22230;SDS011;11284;48.086;-1.652;2023-07-20T08:50:25;8.77;;;2.90;;
22230;SDS011;11284;48.086;-1.652;2023-07-20T08:52:51;7.57;;;3.13;;
22230;SDS011;11284;48.086;-1.652;2023-07-20T08:55:20;8.80;;;2.80;;
22230;SDS011;11284;48.086;-1.652;2023-07-20T08:57:47;8.25;;;2.90;;
22230;SDS011;11284;48.086;-1.652;2023-07-20T09:00:15;7.30;;;2.90;;
22230;SDS011;11284;48.086;-1.652;2023-07-20T09:02:42;7.47;;;2.67;;
22230;SDS011;11284;48.086;-1.652;2023-07-20T09:05:10;9.38;;;2.80;;
22230;SDS011;11284;48.086;-1.652;2023-07-20T09:07:39;5.00;;;2.33;;
22230;SDS011;11284;48.086;-1.652;2023-07-20T09:10:06;6.38;;;2.70;;
22230;SDS011;11284;48.086;-1.652;2023-07-20T09:12:35;7.70;;;2.28;;
22230;SDS011;11284;48.086;-1.652;2023-07-20T09:15:02;10.43;;;2.78;;
22230;SDS011;11284;48.086;-1.652;2023-07-20T09:17:28;7.13;;;2.70;;
22230;SDS011;11284;48.086;-1.652;2023-07-20T09:19:54;6.82;;;2.63;;
22230;SDS011;11284;48.086;-1.652;2023-07-20T09:22:20;5.43;;;2.45;;
22230;SDS011;11284;48.086;-1.652;2023-07-20T09:24:46;6.20;;;2.45;;
22230;SDS011;11284;48.086;-1.652;2023-07-20T09:27:12;6.90;;;2.38;;
22230;SDS011;11284;48.086;-1.652;2023-07-20T09:29:51;5.93;;;2.10;;
22230;SDS011;11284;48.086;-1.652;2023-07-20T09:32:20;5.25;;;2.05;;
22230;SDS011;11284;48.086;-1.652;2023-07-20T09:34:46;5.10;;;2.08;;
22230;SDS011;11284;48.086;-1.652;2023-07-20T09:37:12;8.00;;;2.25;;
22230;SDS011;11284;48.086;-1.652;2023-07-20T09:39:42;6.35;;;2.22;;
22230;SDS011;11284;48.086;-1.652;2023-07-20T09:42:10;5.28;;;2.17;;
22230;SDS011;11284;48.086;-1.652;2023-07-20T09:44:36;6.32;;;2.50;;
22230;SDS011;11284;48.086;-1.652;2023-07-20T09:47:03;6.97;;;2.40;;
22230;SDS011;11284;48.086;-1.652;2023-07-20T09:49:29;6.38;;;2.38;;
22230;SDS011;11284;48.086;-1.652;2023-07-20T09:51:55;6.47;;;2.20;;
22230;SDS011;11284;48.086;-1.652;2023-07-20T09:54:23;4.60;;;1.60;;
22230;SDS011;11284;48.086;-1.652;2023-07-20T09:56:50;5.72;;;1.90;;
22230;SDS011;11284;48.086;-1.652;2023-07-20T09:59:17;4.97;;;1.83;;
22230;SDS011;11284;48.086;-1.652;2023-07-20T10:01:43;4.35;;;1.73;;
22230;SDS011;11284;48.086;-1.652;2023-07-20T10:04:10;5.68;;;1.80;;
22230;SDS011;11284;48.086;-1.652;2023-07-20T10:06:37;4.50;;;1.50;;
22230;SDS011;11284;48.086;-1.652;2023-07-20T10:09:05;6.22;;;1.90;;
22230;SDS011;11284;48.086;-1.652;2023-07-20T10:11:34;5.55;;;1.67;;
22230;SDS011;11284;48.086;-1.652;2023-07-20T10:14:02;4.13;;;1.50;;
22230;SDS011;11284;48.086;-1.652;2023-07-20T10:16:31;4.80;;;1.70;;
22230;SDS011;11284;48.086;-1.652;2023-07-20T10:21:23;7.35;;;2.03;;
22230;SDS011;11284;48.086;-1.652;2023-07-20T10:23:50;4.47;;;1.73;;
22230;SDS011;11284;48.086;-1.652;2023-07-20T10:26:16;4.15;;;1.70;;
22230;SDS011;11284;48.086;-1.652;2023-07-20T10:28:42;6.68;;;1.63;;
22230;SDS011;11284;48.086;-1.652;2023-07-20T10:31:08;4.93;;;1.75;;
22230;SDS011;11284;48.086;-1.652;2023-07-20T10:33:36;7.32;;;2.03;;
22230;SDS011;11284;48.086;-1.652;2023-07-20T10:36:03;4.03;;;1.70;;
22230;SDS011;11284;48.086;-1.652;2023-07-20T10:43:49;3.67;;;1.63;;
22230;SDS011;11284;48.086;-1.652;2023-07-20T10:46:33;5.18;;;1.85;;
22230;SDS011;11284;48.086;-1.652;2023-07-20T10:51:25;4.78;;;1.65;;
22230;SDS011;11284;48.086;-1.652;2023-07-20T10:53:51;5.10;;;1.50;;
22230;SDS011;11284;48.086;-1.652;2023-07-20T10:56:20;4.63;;;1.50;;
22230;SDS011;11284;48.086;-1.652;2023-07-20T10:58:46;3.53;;;1.20;;
22230;SDS011;11284;48.086;-1.652;2023-07-20T11:01:13;4.40;;;1.48;;
22230;SDS011;11284;48.086;-1.652;2023-07-20T11:03:39;4.55;;;1.40;;
22230;SDS011;11284;48.086;-1.652;2023-07-20T11:09:05;7.78;;;2.08;;
22230;SDS011;11284;48.086;-1.652;2023-07-20T11:11:50;5.57;;;1.80;;
22230;SDS011;11284;48.086;-1.652;2023-07-20T11:14:34;3.83;;;1.65;;
22230;SDS011;11284;48.086;-1.652;2023-07-20T11:17:15;5.00;;;1.70;;
22230;SDS011;11284;48.086;-1.652;2023-07-20T11:19:47;5.00;;;1.90;;
22230;SDS011;11284;48.086;-1.652;2023-07-20T11:22:13;5.05;;;1.85;;
22230;SDS011;11284;48.086;-1.652;2023-07-20T11:24:41;4.35;;;1.67;;
22230;SDS011;11284;48.086;-1.652;2023-07-20T11:27:08;6.95;;;2.22;;
22230;SDS011;11284;48.086;-1.652;2023-07-20T11:29:34;5.47;;;1.73;;
22230;SDS011;11284;48.086;-1.652;2023-07-20T11:32:01;3.47;;;1.45;;
22230;SDS011;11284;48.086;-1.652;2023-07-20T11:34:29;5.93;;;1.50;;
22230;SDS011;11284;48.086;-1.652;2023-07-20T11:36:55;3.65;;;1.48;;
22230;SDS011;11284;48.086;-1.652;2023-07-20T11:39:22;5.18;;;1.77;;
22230;SDS011;11284;48.086;-1.652;2023-07-20T11:41:50;3.70;;;1.52;;
22230;SDS011;11284;48.086;-1.652;2023-07-20T11:44:16;4.63;;;1.83;;
22230;SDS011;11284;48.086;-1.652;2023-07-20T11:46:43;5.80;;;1.73;;
22230;SDS011;11284;48.086;-1.652;2023-07-20T11:49:09;4.60;;;1.50;;
22230;SDS011;11284;48.086;-1.652;2023-07-20T11:51:35;4.50;;;1.83;;
22230;SDS011;11284;48.086;-1.652;2023-07-20T11:54:02;5.43;;;1.48;;
22230;SDS011;11284;48.086;-1.652;2023-07-20T11:56:28;6.00;;;1.60;;
22230;SDS011;11284;48.086;-1.652;2023-07-20T11:58:56;4.03;;;1.52;;
22230;SDS011;11284;48.086;-1.652;2023-07-20T12:01:24;4.55;;;1.70;;
22230;SDS011;11284;48.086;-1.652;2023-07-20T12:03:54;7.25;;;1.50;;
22230;SDS011;11284;48.086;-1.652;2023-07-20T12:06:22;4.43;;;1.52;;
22230;SDS011;11284;48.086;-1.652;2023-07-20T12:08:49;6.78;;;1.80;;
22230;SDS011;11284;48.086;-1.652;2023-07-20T12:11:29;7.07;;;1.70;;
22230;SDS011;11284;48.086;-1.652;2023-07-20T12:13:57;5.10;;;1.70;;
22230;SDS011;11284;48.086;-1.652;2023-07-20T12:16:26;4.80;;;1.77;;
22230;SDS011;11284;48.086;-1.652;2023-07-20T12:18:59;6.20;;;2.10;;
22230;SDS011;11284;48.086;-1.652;2023-07-20T12:21:25;3.38;;;1.30;;
22230;SDS011;11284;48.086;-1.652;2023-07-20T12:23:51;4.20;;;1.67;;
22230;SDS011;11284;48.086;-1.652;2023-07-20T12:26:17;5.97;;;1.60;;
22230;SDS011;11284;48.086;-1.652;2023-07-20T12:28:43;6.22;;;1.85;;
22230;SDS011;11284;48.086;-1.652;2023-07-20T12:31:09;5.47;;;1.65;;
22230;SDS011;11284;48.086;-1.652;2023-07-20T12:33:38;3.33;;;1.58;;
22230;SDS011;11284;48.086;-1.652;2023-07-20T12:36:05;3.88;;;1.40;;
22230;SDS011;11284;48.086;-1.652;2023-07-20T12:38:31;3.80;;;1.50;;
22230;SDS011;11284;48.086;-1.652;2023-07-20T12:40:57;3.35;;;1.50;;
22230;SDS011;11284;48.086;-1.652;2023-07-20T12:43:24;4.45;;;1.67;;
22230;SDS011;11284;48.086;-1.652;2023-07-20T12:45:50;5.85;;;1.63;;
22230;SDS011;11284;48.086;-1.652;2023-07-20T12:48:16;3.63;;;1.48;;
22230;SDS011;11284;48.086;-1.652;2023-07-20T12:50:42;3.58;;;1.15;;
22230;SDS011;11284;48.086;-1.652;2023-07-20T12:53:09;5.80;;;1.48;;
22230;SDS011;11284;48.086;-1.652;2023-07-20T12:55:35;5.88;;;1.50;;
22230;SDS011;11284;48.086;-1.652;2023-07-20T12:58:01;6.28;;;1.40;;
22230;SDS011;11284;48.086;-1.652;2023-07-20T13:00:27;6.32;;;1.55;;
22230;SDS011;11284;48.086;-1.652;2023-07-20T13:02:53;4.05;;;1.60;;
22230;SDS011;11284;48.086;-1.652;2023-07-20T13:05:19;6.25;;;1.40;;
22230;SDS011;11284;48.086;-1.652;2023-07-20T13:07:45;4.97;;;1.30;;
22230;SDS011;11284;48.086;-1.652;2023-07-20T13:10:11;7.00;;;1.23;;
22230;SDS011;11284;48.086;-1.652;2023-07-20T13:12:37;7.18;;;1.92;;
22230;SDS011;11284;48.086;-1.652;2023-07-20T13:15:04;3.90;;;1.23;;
22230;SDS011;11284;48.086;-1.652;2023-07-20T13:17:31;3.92;;;1.40;;
22230;SDS011;11284;48.086;-1.652;2023-07-20T13:19:57;3.85;;;1.42;;
22230;SDS011;11284;48.086;-1.652;2023-07-20T13:22:23;4.63;;;1.40;;
22230;SDS011;11284;48.086;-1.652;2023-07-20T13:24:49;4.25;;;1.20;;
22230;SDS011;11284;48.086;-1.652;2023-07-20T13:27:16;3.85;;;1.50;;
22230;SDS011;11284;48.086;-1.652;2023-07-20T13:29:42;3.53;;;1.23;;
22230;SDS011;11284;48.086;-1.652;2023-07-20T13:32:08;5.18;;;1.60;;
22230;SDS011;11284;48.086;-1.652;2023-07-20T13:34:35;4.93;;;1.50;;
22230;SDS011;11284;48.086;-1.652;2023-07-20T13:37:01;4.28;;;1.13;;
22230;SDS011;11284;48.086;-1.652;2023-07-20T13:39:27;4.32;;;1.33;;
22230;SDS011;11284;48.086;-1.652;2023-07-20T13:41:53;3.95;;;1.30;;
22230;SDS011;11284;48.086;-1.652;2023-07-20T13:44:20;4.90;;;1.27;;
22230;SDS011;11284;48.086;-1.652;2023-07-20T13:46:46;5.15;;;1.30;;
22230;SDS011;11284;48.086;-1.652;2023-07-20T13:49:12;4.28;;;1.30;;
22230;SDS011;11284;48.086;-1.652;2023-07-20T13:51:39;3.03;;;1.10;;
22230;SDS011;11284;48.086;-1.652;2023-07-20T13:54:05;3.30;;;1.20;;
22230;SDS011;11284;48.086;-1.652;2023-07-20T13:56:31;4.60;;;1.27;;
22230;SDS011;11284;48.086;-1.652;2023-07-20T13:58:57;2.60;;;1.10;;
22230;SDS011;11284;48.086;-1.652;2023-07-20T14:01:23;5.93;;;1.30;;
22230;SDS011;11284;48.086;-1.652;2023-07-20T14:03:50;4.38;;;1.27;;
22230;SDS011;11284;48.086;-1.652;2023-07-20T14:06:16;3.40;;;1.25;;
22230;SDS011;11284;48.086;-1.652;2023-07-20T14:08:42;4.55;;;1.23;;
22230;SDS011;11284;48.086;-1.652;2023-07-20T14:11:11;4.40;;;1.33;;
22230;SDS011;11284;48.086;-1.652;2023-07-20T14:13:37;4.05;;;1.23;;
22230;SDS011;11284;48.086;-1.652;2023-07-20T14:16:04;6.13;;;1.38;;
22230;SDS011;11284;48.086;-1.652;2023-07-20T14:18:30;3.75;;;1.00;;
22230;SDS011;11284;48.086;-1.652;2023-07-20T14:20:56;7.32;;;1.27;;
22230;SDS011;11284;48.086;-1.652;2023-07-20T14:23:22;4.25;;;1.17;;
22230;SDS011;11284;48.086;-1.652;2023-07-20T14:25:48;5.78;;;1.38;;
22230;SDS011;11284;48.086;-1.652;2023-07-20T14:28:14;6.07;;;1.40;;
22230;SDS011;11284;48.086;-1.652;2023-07-20T14:30:40;4.35;;;1.25;;
22230;SDS011;11284;48.086;-1.652;2023-07-20T14:33:07;5.03;;;1.33;;
22230;SDS011;11284;48.086;-1.652;2023-07-20T14:35:33;4.28;;;1.50;;
22230;SDS011;11284;48.086;-1.652;2023-07-20T14:37:59;5.57;;;1.60;;
22230;SDS011;11284;48.086;-1.652;2023-07-20T14:40:25;3.85;;;1.30;;
22230;SDS011;11284;48.086;-1.652;2023-07-20T14:42:51;3.92;;;1.50;;
22230;SDS011;11284;48.086;-1.652;2023-07-20T14:45:17;5.28;;;1.35;;
22230;SDS011;11284;48.086;-1.652;2023-07-20T14:47:44;4.10;;;1.30;;
22230;SDS011;11284;48.086;-1.652;2023-07-20T14:50:10;5.22;;;1.23;;
22230;SDS011;11284;48.086;-1.652;2023-07-20T14:52:36;4.53;;;1.38;;